Time;durP1;ratioP1;P1;durP2;ratioP2;P2;SDS_P1;SDS_P2;PMS_P1;PMS_P2;Temp;Humidity;BMP_temperature;BMP_pressure;BME280_temperature;BME280_humidity;BME280_pressure;Samples;Min_cycle;Max_cycle;Signal;HPM_P1;HPM_P2
2022/12/30 00:00:19;;;;;;;12.45;2.95;;;8.00;99.90;;;;;;4135862;28;20034;-70
2022/12/30 00:02:19;;;;;;;15.93;3.00;;;8.00;99.90;;;;;;4143405;28;20065;-70
2022/12/30 00:04:20;;;;;;;13.68;4.03;;;8.00;99.90;;;;;;4142959;28;20034;-70
2022/12/30 00:06:23;;;;;;;12.98;3.08;;;8.00;99.90;;;;;;4136435;28;20045;-70
2022/12/30 00:10:43;;;;;;;14.95;2.88;;;8.00;99.90;;;;;;4136829;28;20046;-70
2022/12/30 00:33:57;;;;;;;10.93;2.80;;;7.90;99.90;;;;;;4138103;28;20038;-70
2022/12/30 00:35:58;;;;;;;8.50;2.83;;;7.90;99.90;;;;;;4134530;28;20041;-70
2022/12/30 00:37:59;;;;;;;10.13;2.95;;;7.90;99.90;;;;;;4141722;28;20034;-71
2022/12/30 00:39:59;;;;;;;16.35;3.53;;;7.90;99.90;;;;;;4143126;28;20080;-70
2022/12/30 00:44:19;;;;;;;14.38;3.25;;;7.90;99.90;;;;;;4123558;28;20027;-70
2022/12/30 00:46:22;;;;;;;17.17;3.28;;;7.90;99.90;;;;;;4135210;28;20096;-70
2022/12/30 00:57:42;;;;;;;13.68;2.72;;;7.90;99.90;;;;;;4140831;28;20042;-71
2022/12/30 00:59:42;;;;;;;10.65;2.53;;;7.90;99.90;;;;;;4142642;28;20114;-69
2022/12/30 01:01:43;;;;;;;10.13;2.40;;;7.90;99.90;;;;;;4140594;28;20076;-69
2022/12/30 01:03:43;;;;;;;9.27;2.33;;;7.90;99.90;;;;;;4140278;28;20536;-70
2022/12/30 01:05:44;;;;;;;11.23;2.85;;;7.90;99.90;;;;;;4141667;28;20485;-70
2022/12/30 01:07:44;;;;;;;9.70;2.85;;;7.90;99.90;;;;;;4141774;28;20089;-70
2022/12/30 01:09:45;;;;;;;11.10;2.83;;;7.90;99.90;;;;;;4134942;28;20034;-70
2022/12/30 01:12:07;;;;;;;11.38;2.75;;;7.90;99.90;;;;;;4140125;28;20030;-70
2022/12/30 01:14:06;;;;;;;13.75;2.80;;;7.90;99.90;;;;;;4139495;28;20061;-70
2022/12/30 01:16:13;;;;;;;14.88;2.75;;;7.90;99.90;;;;;;4141517;28;20069;-70
2022/12/30 01:18:13;;;;;;;22.60;3.40;;;7.90;99.90;;;;;;4141524;28;21072;-71
2022/12/30 01:20:14;;;;;;;15.63;3.05;;;7.80;99.90;;;;;;4144392;28;20058;-70
2022/12/30 01:22:15;;;;;;;10.85;2.20;;;7.90;99.90;;;;;;4139610;28;20040;-70
2022/12/30 01:24:16;;;;;;;20.05;3.33;;;7.90;99.90;;;;;;4138026;28;20030;-70
2022/12/30 01:26:16;;;;;;;13.70;2.80;;;7.80;99.90;;;;;;4140578;28;20041;-70
2022/12/30 01:28:17;;;;;;;12.43;2.85;;;7.90;99.90;;;;;;4145114;28;20421;-71
2022/12/30 01:30:18;;;;;;;7.47;2.30;;;7.80;99.90;;;;;;4138538;28;20034;-71
2022/12/30 01:32:20;;;;;;;11.27;2.30;;;7.90;99.90;;;;;;4138075;28;20022;-70
2022/12/30 01:34:21;;;;;;;15.38;2.80;;;7.90;99.90;;;;;;4141069;28;20113;-70
2022/12/30 01:36:21;;;;;;;17.17;3.03;;;7.90;99.90;;;;;;4145028;28;20034;-71
2022/12/30 01:38:22;;;;;;;13.27;3.08;;;7.90;99.90;;;;;;4144949;28;20030;-71
2022/12/30 01:40:23;;;;;;;9.68;1.98;;;7.90;99.90;;;;;;4144352;28;20049;-71
2022/12/30 01:42:24;;;;;;;9.23;2.83;;;7.90;99.90;;;;;;4140850;28;20517;-70
2022/12/30 01:45:02;;;;;;;11.03;2.93;;;7.80;99.90;;;;;;4135406;28;20397;-70
2022/12/30 01:47:03;;;;;;;8.07;2.40;;;7.80;99.90;;;;;;4133978;28;20038;-70
2022/12/30 01:49:03;;;;;;;10.35;2.53;;;7.80;99.90;;;;;;4137397;28;20041;-70
2022/12/30 01:51:10;;;;;;;11.18;2.50;;;7.90;99.90;;;;;;4144626;28;20037;-71
2022/12/30 01:53:18;;;;;;;13.02;2.75;;;7.80;99.90;;;;;;4144546;28;20041;-71
2022/12/30 01:55:46;;;;;;;13.68;2.60;;;7.80;99.90;;;;;;4144527;28;20030;-71
2022/12/30 01:57:50;;;;;;;10.00;2.35;;;7.80;99.90;;;;;;4136736;28;20036;-70
2022/12/30 01:59:51;;;;;;;11.55;2.58;;;7.70;99.90;;;;;;4145244;28;20044;-70
2022/12/30 02:01:52;;;;;;;14.73;3.25;;;7.70;99.90;;;;;;4140208;28;20412;-71
2022/12/30 02:04:00;;;;;;;9.55;2.92;;;7.70;99.90;;;;;;4142003;28;20413;-71
2022/12/30 02:06:02;;;;;;;11.85;2.50;;;7.70;99.90;;;;;;4145066;28;20113;-71
2022/12/30 02:08:09;;;;;;;9.48;2.60;;;7.70;99.90;;;;;;4142743;28;20030;-70
2022/12/30 02:10:11;;;;;;;9.13;2.42;;;7.60;99.90;;;;;;4143058;28;20489;-70
2022/12/30 02:12:11;;;;;;;14.57;2.88;;;7.60;99.90;;;;;;4144978;28;20468;-71
2022/12/30 02:14:12;;;;;;;12.25;3.00;;;7.60;99.90;;;;;;4146475;28;20022;-71
2022/12/30 02:16:31;;;;;;;9.68;2.88;;;7.60;99.90;;;;;;4137332;28;20495;-71
2022/12/30 02:18:52;;;;;;;7.88;2.60;;;7.60;99.90;;;;;;4159489;28;20030;-70
2022/12/30 02:21:10;;;;;;;15.32;2.97;;;7.60;99.90;;;;;;4142200;28;20389;-71
2022/12/30 02:23:36;;;;;;;9.90;2.47;;;7.50;99.90;;;;;;4135336;28;20087;-71
2022/12/30 02:25:59;;;;;;;12.15;3.05;;;7.50;99.90;;;;;;4141545;28;20599;-71
2022/12/30 02:28:32;;;;;;;19.83;2.90;;;7.50;99.90;;;;;;4143241;28;20080;-70
2022/12/30 02:30:53;;;;;;;14.80;2.67;;;7.50;99.90;;;;;;4142824;28;20030;-71
2022/12/30 02:33:08;;;;;;;13.48;2.58;;;7.60;99.90;;;;;;4141637;28;20068;-71
2022/12/30 02:35:25;;;;;;;8.07;2.47;;;7.60;99.90;;;;;;4135652;28;20026;-71
2022/12/30 02:37:51;;;;;;;7.45;1.90;;;7.60;99.90;;;;;;4122715;28;20033;-69
2022/12/30 02:39:57;;;;;;;14.70;2.55;;;7.60;99.90;;;;;;4136119;28;20646;-71
2022/12/30 02:44:50;;;;;;;9.57;2.10;;;7.60;99.90;;;;;;4144042;28;20030;-70
2022/12/30 02:47:09;;;;;;;8.27;2.00;;;7.60;99.90;;;;;;4143600;28;20124;-71
2022/12/30 02:49:12;;;;;;;9.10;2.58;;;7.60;99.90;;;;;;4146223;28;20054;-71
2022/12/30 02:53:35;;;;;;;9.38;2.58;;;7.60;99.90;;;;;;4145802;28;20038;-70
2022/12/30 02:55:36;;;;;;;12.98;2.75;;;7.50;99.90;;;;;;4140852;28;20034;-71
2022/12/30 02:57:37;;;;;;;12.15;2.90;;;7.50;99.90;;;;;;4135131;28;20029;-71
2022/12/30 03:05:13;;;;;;;13.20;2.92;;;7.40;99.90;;;;;;4130753;28;20030;-71
2022/12/30 03:07:43;;;;;;;13.88;2.63;;;7.40;99.90;;;;;;4129947;28;20404;-71
2022/12/30 03:12:25;;;;;;;12.30;2.40;;;7.40;99.90;;;;;;4143956;28;20041;-71
2022/12/30 03:14:37;;;;;;;8.05;2.50;;;7.40;99.90;;;;;;4145882;28;20437;-70
2022/12/30 03:17:01;;;;;;;10.52;3.03;;;7.30;99.90;;;;;;4143872;28;20453;-71
2022/12/30 03:19:06;;;;;;;10.38;2.35;;;7.30;99.90;;;;;;4144025;28;20049;-70
2022/12/30 03:21:10;;;;;;;8.70;2.22;;;7.40;99.90;;;;;;4144189;28;20441;-71
2022/12/30 03:27:55;;;;;;;8.25;2.50;;;7.30;99.90;;;;;;4129969;28;20466;-71
2022/12/30 03:30:00;;;;;;;16.63;2.42;;;7.30;99.90;;;;;;4129776;28;20031;-69
2022/12/30 03:32:02;;;;;;;10.32;2.30;;;7.20;99.90;;;;;;4141864;28;20038;-70
2022/12/30 03:34:03;;;;;;;14.30;3.15;;;7.20;99.90;;;;;;4144680;28;20041;-71
2022/12/30 03:36:21;;;;;;;14.20;2.83;;;7.30;99.90;;;;;;4140919;28;20044;-71
2022/12/30 03:38:29;;;;;;;8.40;2.05;;;7.20;99.90;;;;;;4145381;28;20790;-71
2022/12/30 03:40:38;;;;;;;19.88;2.85;;;7.20;99.90;;;;;;4144715;28;20030;-71
2022/12/30 03:42:39;;;;;;;10.00;2.38;;;7.20;99.90;;;;;;4130378;28;20093;-71
2022/12/30 03:44:42;;;;;;;13.50;2.75;;;7.10;99.90;;;;;;4143371;28;20034;-71
2022/12/30 03:46:45;;;;;;;8.63;2.60;;;7.10;99.90;;;;;;4143963;28;20481;-71
2022/12/30 03:48:45;;;;;;;9.25;2.42;;;7.10;99.90;;;;;;4145214;28;20508;-71
2022/12/30 03:50:46;;;;;;;11.90;2.50;;;7.10;99.90;;;;;;4141423;28;20041;-71
2022/12/30 03:52:47;;;;;;;10.25;2.78;;;7.10;99.90;;;;;;4143189;28;20049;-70
2022/12/30 03:54:51;;;;;;;11.75;2.65;;;7.10;99.90;;;;;;4145990;28;20034;-70
2022/12/30 03:56:51;;;;;;;11.15;2.58;;;7.10;99.90;;;;;;4140398;28;20025;-71
2022/12/30 03:58:52;;;;;;;9.27;2.60;;;7.10;99.90;;;;;;4144692;28;20503;-71
2022/12/30 04:00:52;;;;;;;10.32;2.30;;;7.10;99.90;;;;;;4141375;28;20484;-71
2022/12/30 04:02:53;;;;;;;10.55;2.40;;;7.10;99.90;;;;;;4141833;28;20097;-71
2022/12/30 04:04:53;;;;;;;14.35;2.95;;;7.00;99.90;;;;;;4144867;28;20034;-70
2022/12/30 04:06:54;;;;;;;15.77;2.95;;;7.00;99.90;;;;;;4144843;28;20044;-71
2022/12/30 04:08:55;;;;;;;10.07;2.40;;;7.00;99.90;;;;;;4145776;28;20038;-71
2022/12/30 04:10:55;;;;;;;12.85;2.90;;;7.00;99.90;;;;;;4144492;28;20038;-71
2022/12/30 04:12:56;;;;;;;16.38;2.63;;;7.00;99.90;;;;;;4143881;28;20815;-70
2022/12/30 04:14:57;;;;;;;17.42;2.92;;;7.00;99.90;;;;;;4145668;28;20045;-70
2022/12/30 04:16:57;;;;;;;13.02;2.75;;;7.00;99.90;;;;;;4131200;28;20034;-70
2022/12/30 04:18:58;;;;;;;12.45;2.67;;;6.90;99.90;;;;;;4144464;28;20057;-70
2022/12/30 04:20:58;;;;;;;9.60;2.40;;;6.90;99.90;;;;;;4143818;28;20069;-70
2022/12/30 04:22:59;;;;;;;9.43;2.03;;;6.90;99.90;;;;;;4144038;28;20037;-71
2022/12/30 04:24:59;;;;;;;10.93;3.00;;;7.00;99.90;;;;;;4137439;28;20034;-71
2022/12/30 04:27:00;;;;;;;15.15;3.03;;;6.90;99.90;;;;;;4128766;28;20030;-71
2022/12/30 04:29:01;;;;;;;9.40;2.33;;;6.90;99.90;;;;;;4145342;28;20034;-71
2022/12/30 04:31:01;;;;;;;13.82;2.85;;;6.90;99.90;;;;;;4142243;28;20552;-70
2022/12/30 04:33:02;;;;;;;10.80;2.30;;;6.90;99.90;;;;;;4143762;28;20037;-71
2022/12/30 04:35:03;;;;;;;10.52;2.38;;;6.90;99.90;;;;;;4145473;28;20041;-69
2022/12/30 04:37:04;;;;;;;10.30;2.70;;;6.90;99.90;;;;;;4144142;28;20480;-70
2022/12/30 04:39:04;;;;;;;10.50;1.73;;;6.90;99.90;;;;;;4143942;28;20109;-71
2022/12/30 04:41:05;;;;;;;8.65;2.17;;;6.90;99.90;;;;;;4144257;28;20030;-70
2022/12/30 04:43:05;;;;;;;11.73;2.53;;;6.90;99.90;;;;;;4141895;28;20045;-71
2022/12/30 04:45:07;;;;;;;10.85;2.33;;;6.90;99.90;;;;;;4144410;28;20034;-71
2022/12/30 04:47:07;;;;;;;13.00;2.60;;;6.90;99.90;;;;;;4129391;28;20093;-71
2022/12/30 04:49:08;;;;;;;8.75;2.50;;;6.90;99.90;;;;;;4141708;28;20038;-70
2022/12/30 04:51:08;;;;;;;10.18;2.47;;;6.90;99.90;;;;;;4141959;28;20038;-71
2022/12/30 04:53:10;;;;;;;10.27;2.20;;;6.90;99.90;;;;;;4143280;28;20117;-70
2022/12/30 04:55:11;;;;;;;10.77;2.47;;;6.90;99.90;;;;;;4144826;28;20437;-71
2022/12/30 04:57:11;;;;;;;14.55;2.95;;;6.90;99.90;;;;;;4144336;28;20034;-71
2022/12/30 04:59:12;;;;;;;11.68;2.75;;;6.90;99.90;;;;;;4145133;28;20108;-71
2022/12/30 05:01:12;;;;;;;10.57;2.38;;;6.90;99.90;;;;;;4141576;28;20034;-71
2022/12/30 05:03:13;;;;;;;10.25;2.05;;;6.90;99.90;;;;;;4143178;28;20034;-71
2022/12/30 05:05:13;;;;;;;10.68;2.38;;;7.00;99.90;;;;;;4144511;28;20045;-71
2022/12/30 05:07:14;;;;;;;11.20;2.70;;;6.90;99.90;;;;;;4131602;28;20038;-71
2022/12/30 05:09:15;;;;;;;8.73;2.63;;;6.90;99.90;;;;;;4139241;28;20108;-70
2022/12/30 05:11:15;;;;;;;13.00;3.17;;;6.90;99.90;;;;;;4143192;28;20026;-71
2022/12/30 05:13:16;;;;;;;10.15;2.95;;;6.90;99.90;;;;;;4143475;28;20046;-71
2022/12/30 05:15:16;;;;;;;14.98;2.75;;;6.90;99.90;;;;;;4142521;28;20945;-71
2022/12/30 05:17:17;;;;;;;13.60;3.08;;;6.90;99.90;;;;;;4148600;28;20033;-70
2022/12/30 05:19:18;;;;;;;16.67;3.47;;;6.90;99.90;;;;;;4155374;28;20473;-70
2022/12/30 05:21:18;;;;;;;13.68;2.50;;;6.80;99.90;;;;;;4148310;28;20030;-70
2022/12/30 05:27:57;;;;;;;7.93;2.20;;;6.80;99.90;;;;;;4143016;28;20069;-69
2022/12/30 05:29:58;;;;;;;8.05;2.40;;;6.90;99.90;;;;;;4154708;28;20103;-70
2022/12/30 05:31:58;;;;;;;8.82;2.20;;;6.80;99.90;;;;;;4143059;28;20033;-70
2022/12/30 05:33:59;;;;;;;12.60;2.53;;;6.80;99.90;;;;;;4142448;28;20502;-70
2022/12/30 05:35:59;;;;;;;10.90;2.50;;;6.80;99.90;;;;;;4156265;28;20374;-70
2022/12/30 05:38:00;;;;;;;9.50;2.38;;;6.80;99.90;;;;;;4157563;28;20481;-70
2022/12/30 05:40:00;;;;;;;12.07;2.70;;;6.80;99.90;;;;;;4150200;28;20033;-70
2022/12/30 05:42:01;;;;;;;12.05;2.63;;;6.80;99.90;;;;;;4143091;28;20034;-70
2022/12/30 05:44:02;;;;;;;16.38;2.95;;;6.80;99.90;;;;;;4142372;28;20038;-71
2022/12/30 05:46:02;;;;;;;8.90;2.35;;;6.80;99.90;;;;;;4141497;28;20038;-71
2022/12/30 05:48:03;;;;;;;17.30;3.58;;;6.70;99.90;;;;;;4161049;28;20072;-71
2022/12/30 05:50:04;;;;;;;12.27;2.40;;;6.80;99.90;;;;;;4147574;28;20041;-69
2022/12/30 05:52:05;;;;;;;11.80;2.92;;;6.80;99.90;;;;;;4142406;28;20034;-71
2022/12/30 05:54:05;;;;;;;14.02;3.03;;;6.80;99.90;;;;;;4145608;28;20029;-71
2022/12/30 05:56:06;;;;;;;14.15;2.63;;;6.70;99.90;;;;;;4150703;28;20033;-70
2022/12/30 05:58:07;;;;;;;13.10;2.95;;;6.70;99.90;;;;;;4161098;28;20400;-70
2022/12/30 06:00:08;;;;;;;15.73;2.53;;;6.70;99.90;;;;;;4149330;28;20040;-70
2022/12/30 06:02:09;;;;;;;12.25;3.03;;;6.70;99.90;;;;;;4139527;28;20041;-70
2022/12/30 06:04:09;;;;;;;19.95;3.45;;;6.70;99.90;;;;;;4154979;28;20121;-71
2022/12/30 06:06:10;;;;;;;11.88;2.92;;;6.70;99.90;;;;;;4146532;28;20046;-71
2022/12/30 06:08:11;;;;;;;15.45;2.88;;;6.70;99.90;;;;;;4145018;28;20034;-71
2022/12/30 06:10:11;;;;;;;14.10;2.95;;;6.70;99.90;;;;;;4146507;28;20030;-72
2022/12/30 06:12:12;;;;;;;14.88;2.50;;;6.70;99.90;;;;;;4144929;28;20137;-71
2022/12/30 06:14:15;;;;;;;12.05;2.42;;;6.70;99.90;;;;;;4146209;28;20514;-71
2022/12/30 06:16:16;;;;;;;6.65;1.90;;;6.80;99.90;;;;;;4143813;28;20030;-71
2022/12/30 06:18:16;;;;;;;16.40;3.13;;;6.80;99.90;;;;;;4144105;28;20109;-71
2022/12/30 06:20:17;;;;;;;11.35;2.17;;;6.80;99.90;;;;;;4143606;28;20588;-71
2022/12/30 06:22:18;;;;;;;13.25;2.53;;;6.80;99.90;;;;;;4140888;28;20042;-71
2022/12/30 06:24:18;;;;;;;12.35;2.53;;;6.80;99.90;;;;;;4144460;28;20033;-69
2022/12/30 06:26:19;;;;;;;8.70;2.53;;;6.80;99.90;;;;;;4145831;28;20553;-70
2022/12/30 06:28:21;;;;;;;10.55;2.78;;;6.70;99.90;;;;;;4143813;28;20034;-70
2022/12/30 06:30:21;;;;;;;10.00;2.73;;;6.70;99.90;;;;;;4144650;28;20037;-71
2022/12/30 06:32:22;;;;;;;10.00;2.47;;;6.70;99.90;;;;;;4144759;28;20604;-71
2022/12/30 06:34:22;;;;;;;7.75;2.35;;;6.70;99.90;;;;;;4146587;28;20038;-71
2022/12/30 06:36:23;;;;;;;13.02;2.78;;;6.70;99.90;;;;;;4144971;28;20038;-71
2022/12/30 06:38:23;;;;;;;8.00;2.17;;;6.60;99.90;;;;;;4144663;28;20088;-70
2022/12/30 06:40:24;;;;;;;9.23;2.25;;;6.60;99.90;;;;;;4144640;28;20034;-70
2022/12/30 06:42:24;;;;;;;13.25;2.90;;;6.60;99.90;;;;;;4145084;28;20119;-70
2022/12/30 06:44:25;;;;;;;9.77;2.42;;;6.50;99.90;;;;;;4146435;28;20473;-71
2022/12/30 06:46:25;;;;;;;12.43;2.65;;;6.50;99.90;;;;;;4144222;28;20034;-71
2022/12/30 06:48:26;;;;;;;12.90;2.80;;;6.50;99.90;;;;;;4147666;28;20106;-71
2022/12/30 06:50:27;;;;;;;10.75;3.15;;;6.50;99.90;;;;;;4145320;28;20036;-70
2022/12/30 06:52:27;;;;;;;9.40;2.50;;;6.50;99.90;;;;;;4145124;28;20042;-71
2022/12/30 06:54:28;;;;;;;7.93;1.80;;;6.40;99.90;;;;;;4146068;28;20033;-71
2022/12/30 06:56:29;;;;;;;17.77;2.72;;;6.40;99.90;;;;;;4145716;28;20030;-70
2022/12/30 06:58:30;;;;;;;7.53;2.33;;;6.40;99.90;;;;;;4146527;28;20084;-70
2022/12/30 07:00:32;;;;;;;11.18;2.58;;;6.40;99.90;;;;;;4142331;28;20273;-70
2022/12/30 07:02:34;;;;;;;16.73;2.90;;;6.40;99.90;;;;;;4144668;28;20038;-71
2022/12/30 07:04:34;;;;;;;8.27;2.90;;;6.40;99.90;;;;;;4145188;28;20475;-71
2022/12/30 07:06:35;;;;;;;12.10;2.63;;;6.30;99.90;;;;;;4143350;28;20038;-70
2022/12/30 07:08:35;;;;;;;12.02;2.60;;;6.30;99.90;;;;;;4141361;28;20081;-71
2022/12/30 07:10:36;;;;;;;12.70;2.92;;;6.30;99.90;;;;;;4143031;28;20037;-75
2022/12/30 07:12:37;;;;;;;10.93;2.55;;;6.30;99.90;;;;;;4155532;28;20436;-75
2022/12/30 07:14:37;;;;;;;13.40;2.78;;;6.30;99.90;;;;;;4143608;28;20029;-76
2022/12/30 07:16:38;;;;;;;10.63;2.63;;;6.30;99.90;;;;;;4142817;28;20370;-75
2022/12/30 07:18:38;;;;;;;12.77;3.05;;;6.20;99.90;;;;;;4145009;28;20034;-74
2022/12/30 07:20:39;;;;;;;7.68;2.30;;;6.20;99.90;;;;;;4143467;28;20120;-75
2022/12/30 07:22:40;;;;;;;14.50;2.42;;;6.20;99.90;;;;;;4144368;28;20041;-74
2022/12/30 07:24:41;;;;;;;10.05;2.55;;;6.20;99.90;;;;;;4142870;28;20034;-75
2022/12/30 07:26:42;;;;;;;11.35;2.28;;;6.20;99.90;;;;;;4145491;28;20129;-75
2022/12/30 07:28:42;;;;;;;10.95;2.95;;;6.20;99.90;;;;;;4145095;28;20472;-74
2022/12/30 07:30:43;;;;;;;10.68;2.45;;;6.20;99.90;;;;;;4142814;28;20056;-75
2022/12/30 07:32:43;;;;;;;10.90;2.47;;;6.20;99.90;;;;;;4145021;28;20084;-75
2022/12/30 07:34:44;;;;;;;13.50;2.80;;;6.20;99.90;;;;;;4143210;28;20030;-75
2022/12/30 07:36:45;;;;;;;10.85;2.50;;;6.20;99.90;;;;;;4144301;28;20572;-75
2022/12/30 07:38:45;;;;;;;8.30;2.58;;;6.20;99.90;;;;;;4145466;28;20025;-74
2022/12/30 07:40:46;;;;;;;9.85;2.67;;;6.20;99.90;;;;;;4144742;28;20041;-75
2022/12/30 07:42:46;;;;;;;7.70;1.90;;;6.20;99.90;;;;;;4144968;28;20052;-74
2022/12/30 07:44:47;;;;;;;6.75;1.77;;;6.20;99.90;;;;;;4142491;28;20400;-75
2022/12/30 07:46:47;;;;;;;5.57;2.05;;;6.20;99.90;;;;;;4140193;28;20132;-75
2022/12/30 07:48:48;;;;;;;15.75;3.35;;;6.20;99.90;;;;;;4141132;28;20108;-75
2022/12/30 07:50:49;;;;;;;9.68;2.35;;;6.20;99.90;;;;;;4139773;28;20030;-75
2022/12/30 07:52:49;;;;;;;7.72;2.35;;;6.20;99.90;;;;;;4140212;28;20393;-75
2022/12/30 07:54:50;;;;;;;11.65;2.38;;;6.30;99.90;;;;;;4141417;28;20045;-75
2022/12/30 07:56:50;;;;;;;14.43;2.60;;;6.30;99.90;;;;;;4140837;28;20078;-75
2022/12/30 07:58:54;;;;;;;11.30;2.40;;;6.30;99.90;;;;;;4140458;28;20026;-73
2022/12/30 08:00:55;;;;;;;8.18;1.95;;;6.30;99.90;;;;;;4141026;28;20034;-75
2022/12/30 08:02:56;;;;;;;7.00;1.85;;;6.30;99.90;;;;;;4142918;28;20034;-74
2022/12/30 08:04:57;;;;;;;9.43;2.03;;;6.30;99.90;;;;;;4144954;28;20080;-75
2022/12/30 08:06:57;;;;;;;8.95;2.47;;;6.30;99.90;;;;;;4143268;28;20041;-75
2022/12/30 08:09:01;;;;;;;9.20;2.53;;;6.40;99.90;;;;;;4138866;28;20041;-74
2022/12/30 08:11:03;;;;;;;9.57;2.30;;;6.40;99.90;;;;;;4139801;28;20033;-74
2022/12/30 08:13:04;;;;;;;8.90;2.38;;;6.40;99.90;;;;;;4141215;28;20092;-75
2022/12/30 08:15:05;;;;;;;9.95;2.72;;;6.40;99.90;;;;;;4143668;28;20053;-73
2022/12/30 08:17:05;;;;;;;11.63;2.80;;;6.40;99.90;;;;;;4140792;28;20061;-74
2022/12/30 08:19:06;;;;;;;8.07;2.28;;;6.40;99.90;;;;;;4144085;28;20049;-75
2022/12/30 08:21:13;;;;;;;11.13;2.80;;;6.40;99.90;;;;;;4143212;28;20034;-74
2022/12/30 08:23:14;;;;;;;8.23;2.65;;;6.50;99.90;;;;;;4142963;28;20492;-75
2022/12/30 08:25:15;;;;;;;6.65;1.90;;;6.50;99.90;;;;;;4141552;28;20125;-76
2022/12/30 08:27:16;;;;;;;13.32;2.60;;;6.50;99.90;;;;;;4144720;28;20041;-75
2022/12/30 08:29:16;;;;;;;8.15;1.90;;;6.50;99.90;;;;;;4144883;28;20033;-75
2022/12/30 08:31:22;;;;;;;9.82;2.42;;;6.60;99.90;;;;;;4141754;28;20095;-75
2022/12/30 08:33:23;;;;;;;8.82;2.40;;;6.60;99.90;;;;;;4142141;28;20117;-74
2022/12/30 08:35:23;;;;;;;6.57;1.63;;;6.60;99.90;;;;;;4143978;28;20132;-75
2022/12/30 08:37:24;;;;;;;8.00;2.15;;;6.70;99.90;;;;;;4143076;28;20061;-75
2022/12/30 08:39:25;;;;;;;9.73;1.85;;;6.70;99.90;;;;;;4159544;28;20041;-75
2022/12/30 08:41:38;;;;;;;8.55;2.30;;;6.70;99.90;;;;;;4141807;28;20509;-76
2022/12/30 08:43:38;;;;;;;;;;;6.80;99.90;;;;;;4143271;28;20029;-75
2022/12/30 08:45:39;;;;;;;7.05;1.63;;;6.80;99.90;;;;;;4138146;28;20458;-75
2022/12/30 08:47:39;;;;;;;9.75;2.38;;;6.80;99.90;;;;;;4142514;28;20038;-74
2022/12/30 08:49:40;;;;;;;9.50;2.38;;;6.80;99.90;;;;;;4146982;28;20030;-75
2022/12/30 08:51:41;;;;;;;7.72;2.45;;;6.80;99.90;;;;;;4146246;28;20111;-75
2022/12/30 08:53:42;;;;;;;11.00;2.35;;;6.90;99.90;;;;;;4148040;28;20030;-75
2022/12/30 08:55:42;;;;;;;8.52;2.08;;;6.90;99.90;;;;;;4144106;28;20488;-75
2022/12/30 08:57:43;;;;;;;10.75;2.40;;;6.90;99.90;;;;;;4145620;28;20030;-75
2022/12/30 08:59:44;;;;;;;9.10;2.42;;;7.00;99.90;;;;;;4145909;28;20082;-75
2022/12/30 09:01:44;;;;;;;8.25;2.33;;;7.00;99.90;;;;;;4139913;28;20524;-75
2022/12/30 09:03:46;;;;;;;8.75;2.42;;;7.00;99.90;;;;;;4145550;28;20053;-75
2022/12/30 09:05:54;;;;;;;11.25;2.40;;;7.10;99.90;;;;;;4146057;28;20566;-75
2022/12/30 09:07:55;;;;;;;9.68;1.85;;;7.10;99.90;;;;;;4145196;28;20038;-75
2022/12/30 09:09:55;;;;;;;8.10;2.38;;;7.10;99.90;;;;;;4144483;28;20095;-75
2022/12/30 09:11:56;;;;;;;11.10;2.42;;;7.20;99.90;;;;;;4140127;28;20049;-75
2022/12/30 09:13:59;;;;;;;10.80;2.00;;;7.30;99.90;;;;;;4143173;28;20038;-74
2022/12/30 09:15:59;;;;;;;9.20;2.15;;;7.30;99.90;;;;;;4143126;28;20396;-75
2022/12/30 09:18:00;;;;;;;10.90;2.38;;;7.40;99.90;;;;;;4142230;28;20033;-75
2022/12/30 09:20:00;;;;;;;10.20;2.20;;;7.40;99.90;;;;;;4147264;28;20042;-75
2022/12/30 09:22:01;;;;;;;5.03;1.48;;;7.40;99.90;;;;;;4144439;28;20057;-75
2022/12/30 09:24:02;;;;;;;6.13;2.20;;;7.50;99.90;;;;;;4141650;28;20034;-74
2022/12/30 09:26:04;;;;;;;8.55;2.28;;;7.50;99.90;;;;;;4143295;28;20374;-74
2022/12/30 09:28:05;;;;;;;9.93;2.03;;;7.50;99.90;;;;;;4143349;28;21059;-74
2022/12/30 09:30:06;;;;;;;10.05;2.05;;;7.60;99.90;;;;;;4144037;28;20034;-75
2022/12/30 09:32:07;;;;;;;8.43;1.70;;;7.60;99.90;;;;;;4140885;28;20065;-75
2022/12/30 09:34:07;;;;;;;9.13;1.80;;;7.60;99.90;;;;;;4142693;28;20440;-75
2022/12/30 09:36:09;;;;;;;6.60;1.58;;;7.60;99.90;;;;;;4144527;28;20034;-75
2022/12/30 09:38:10;;;;;;;8.43;2.25;;;7.70;99.90;;;;;;4142763;28;20073;-75
2022/12/30 09:40:35;;;;;;;11.43;2.13;;;7.70;99.90;;;;;;4146533;28;20046;-75
2022/12/30 09:45:13;;;;;;;5.72;1.73;;;7.80;99.90;;;;;;4147411;28;20044;-74
2022/12/30 09:47:32;;;;;;;6.97;1.63;;;7.80;99.90;;;;;;4152414;28;20488;-75
2022/12/30 09:49:39;;;;;;;7.15;1.40;;;7.90;99.90;;;;;;4140033;28;20041;-74
2022/12/30 09:51:45;;;;;;;7.57;1.70;;;7.90;99.90;;;;;;4142463;28;20061;-76
2022/12/30 09:53:54;;;;;;;5.40;2.28;;;8.00;99.90;;;;;;4146336;28;20057;-76
2022/12/30 09:55:59;;;;;;;10.27;1.90;;;8.00;99.90;;;;;;4145138;28;20092;-76
2022/12/30 09:58:07;;;;;;;10.13;2.20;;;8.00;99.90;;;;;;4143638;28;20384;-75
2022/12/30 10:00:20;;;;;;;9.23;2.53;;;8.10;99.90;;;;;;4146473;28;20117;-74
2022/12/30 10:02:27;;;;;;;10.38;2.33;;;8.10;99.90;;;;;;4145250;28;20038;-75
2022/12/30 10:04:35;;;;;;;6.28;1.67;;;8.10;99.90;;;;;;4146336;28;20033;-75
2022/12/30 10:06:40;;;;;;;6.18;1.67;;;8.20;99.90;;;;;;4146596;28;20038;-75
2022/12/30 10:08:46;;;;;;;5.50;1.30;;;8.20;99.90;;;;;;4141422;28;20030;-75
2022/12/30 10:10:56;;;;;;;5.78;1.77;;;8.30;99.90;;;;;;4144375;28;20021;-76
2022/12/30 10:13:14;;;;;;;6.28;1.50;;;8.30;99.90;;;;;;4143300;28;20050;-75
2022/12/30 10:15:48;;;;;;;6.88;1.67;;;8.40;99.90;;;;;;4145419;28;20041;-75
2022/12/30 10:18:13;;;;;;;5.90;1.42;;;8.40;99.90;;;;;;4133953;28;20034;-75
2022/12/30 10:20:49;;;;;;;6.40;1.58;;;8.50;99.90;;;;;;4145632;28;20033;-74
2022/12/30 10:23:03;;;;;;;7.35;1.67;;;8.50;99.90;;;;;;4134282;28;20034;-75
2022/12/30 10:25:23;;;;;;;9.18;1.98;;;8.60;99.90;;;;;;4140743;28;20065;-73
2022/12/30 10:27:38;;;;;;;7.07;1.95;;;8.60;99.90;;;;;;4136221;28;20080;-76
2022/12/30 10:29:41;;;;;;;8.68;2.35;;;8.70;99.90;;;;;;4142204;28;20069;-75
2022/12/30 10:31:45;;;;;;;6.13;1.30;;;8.70;99.90;;;;;;4140795;28;20074;-75
2022/12/30 10:33:53;;;;;;;7.63;1.95;;;8.80;99.90;;;;;;4146104;28;20041;-75
2022/12/30 10:36:16;;;;;;;10.57;1.73;;;8.80;99.90;;;;;;4128408;28;20497;-75
2022/12/30 10:38:20;;;;;;;7.47;1.88;;;8.80;99.90;;;;;;4146125;28;20546;-75
2022/12/30 10:40:26;;;;;;;11.98;1.65;;;8.90;99.90;;;;;;4148236;28;20037;-75
2022/12/30 10:42:47;;;;;;;7.93;1.75;;;9.00;99.90;;;;;;4145758;28;20034;-74
2022/12/30 10:45:29;;;;;;;14.63;2.17;;;9.00;99.90;;;;;;4145040;28;20104;-74
2022/12/30 10:47:48;;;;;;;7.57;2.08;;;9.10;99.90;;;;;;4142036;28;20080;-74
2022/12/30 10:50:14;;;;;;;5.90;1.80;;;9.10;99.90;;;;;;4143750;28;20112;-74
2022/12/30 10:52:15;;;;;;;4.45;1.48;;;9.10;99.90;;;;;;4129767;28;20042;-74
2022/12/30 10:54:16;;;;;;;7.75;1.52;;;9.10;99.90;;;;;;4144530;28;20033;-74
2022/12/30 10:56:31;;;;;;;5.90;1.80;;;9.20;99.90;;;;;;4143981;28;20045;-74
2022/12/30 10:58:38;;;;;;;5.55;1.42;;;9.20;99.90;;;;;;4145711;28;20484;-74
2022/12/30 11:00:40;;;;;;;7.53;1.98;;;9.20;99.90;;;;;;4142929;28;20116;-74
2022/12/30 11:02:51;;;;;;;5.90;1.92;;;9.20;99.90;;;;;;4144133;28;20057;-73
2022/12/30 11:04:51;;;;;;;7.93;1.88;;;9.20;99.90;;;;;;4158708;28;20129;-75
2022/12/30 11:07:00;;;;;;;6.70;1.50;;;9.20;99.90;;;;;;4145268;28;20038;-75
2022/12/30 11:09:12;;;;;;;6.78;1.65;;;9.20;99.90;;;;;;4145024;28;20034;-74
2022/12/30 11:11:13;;;;;;;8.60;1.83;;;9.20;99.90;;;;;;4142775;28;20116;-73
2022/12/30 11:15:52;;;;;;;9.45;1.80;;;9.20;99.90;;;;;;4139533;28;20122;-72
2022/12/30 11:17:56;;;;;;;4.75;1.50;;;9.20;99.90;;;;;;4142712;28;20053;-73
2022/12/30 11:20:05;;;;;;;10.57;1.55;;;9.20;99.90;;;;;;4146080;28;20046;-73
2022/12/30 11:22:06;;;;;;;6.30;2.00;;;9.20;99.90;;;;;;4144781;28;20543;-73
2022/12/30 11:24:15;;;;;;;9.85;2.05;;;9.20;99.90;;;;;;4140835;28;20113;-73
2022/12/30 11:26:18;;;;;;;7.32;1.88;;;9.20;99.90;;;;;;4143487;28;20037;-73
2022/12/30 11:28:28;;;;;;;8.55;1.65;;;9.20;99.90;;;;;;4145876;28;20033;-73
2022/12/30 11:30:42;;;;;;;9.10;1.73;;;9.20;99.90;;;;;;4139537;28;20040;-73
2022/12/30 11:32:46;;;;;;;10.35;2.10;;;9.20;99.90;;;;;;4138244;28;20038;-73
2022/12/30 11:34:46;;;;;;;3.92;1.50;;;9.20;99.90;;;;;;4145542;28;20034;-73
2022/12/30 11:36:47;;;;;;;9.52;1.77;;;9.20;99.90;;;;;;4142690;28;20469;-73
2022/12/30 11:38:50;;;;;;;6.70;1.50;;;9.20;99.90;;;;;;4144273;28;20049;-73
2022/12/30 11:40:50;;;;;;;9.13;1.85;;;9.30;99.90;;;;;;4145690;28;20507;-73
2022/12/30 11:43:16;;;;;;;8.57;1.73;;;9.20;99.90;;;;;;4142141;28;20081;-73
2022/12/30 11:45:18;;;;;;;6.85;1.55;;;9.20;99.90;;;;;;4140802;28;20034;-73
2022/12/30 11:47:19;;;;;;;8.05;1.73;;;9.20;99.90;;;;;;4141723;28;20038;-73
2022/12/30 11:49:29;;;;;;;5.60;1.80;;;9.20;99.90;;;;;;4145623;28;20153;-74
2022/12/30 11:51:33;;;;;;;4.43;1.40;;;9.20;99.90;;;;;;4137904;28;20034;-73
2022/12/30 11:53:36;;;;;;;11.90;2.15;;;9.30;99.90;;;;;;4137567;28;20031;-71